createdAt,value
2022-08-17T00:01:51.335Z,16.63
2022-08-17T00:04:22.326Z,13.52
2022-08-17T00:06:51.536Z,12.68
2022-08-17T00:09:26.218Z,13.57
2022-08-17T00:12:35.568Z,12.25
2022-08-17T00:14:44.265Z,11.43
2022-08-17T00:17:14.198Z,13.70
2022-08-17T00:19:43.273Z,12.85
2022-08-17T00:22:34.815Z,13.30
2022-08-17T00:25:09.447Z,14.77
2022-08-17T00:27:39.936Z,13.57
2022-08-17T00:30:11.823Z,13.18
2022-08-17T00:33:13.886Z,12.68
2022-08-17T00:35:44.727Z,15.70
2022-08-17T00:38:17.539Z,15.38
2022-08-17T00:40:50.129Z,13.70
2022-08-17T00:43:22.517Z,13.63
2022-08-17T00:45:51.071Z,13.90
2022-08-17T00:48:29.101Z,12.25
2022-08-17T00:51:02.968Z,12.63
2022-08-17T00:53:43.020Z,12.90
2022-08-17T00:56:30.388Z,14.13
2022-08-17T00:59:03.901Z,16.92
2022-08-17T01:01:33.374Z,15.45
2022-08-17T01:04:03.453Z,15.63
2022-08-17T01:06:32.370Z,15.90
2022-08-17T01:09:03.485Z,18.23
2022-08-17T01:11:36.208Z,18.67
2022-08-17T01:14:04.843Z,16.85
2022-08-17T01:16:33.692Z,18.58
2022-08-17T01:19:04.967Z,14.23
2022-08-17T01:21:42.453Z,14.30
2022-08-17T01:24:12.122Z,13.45
2022-08-17T01:26:41.740Z,13.50
2022-08-17T01:29:10.356Z,13.00
2022-08-17T01:31:43.144Z,14.05
2022-08-17T01:34:13.457Z,15.80
2022-08-17T01:36:44.710Z,11.52
2022-08-17T01:39:22.460Z,14.98
2022-08-17T01:41:52.834Z,17.60
2022-08-17T01:44:22.965Z,13.70
2022-08-17T01:46:51.249Z,13.00
2022-08-17T01:49:20.769Z,13.40
2022-08-17T01:51:49.408Z,14.25
2022-08-17T01:54:20.734Z,11.32
2022-08-17T01:56:51.914Z,11.35
2022-08-17T01:59:21.387Z,12.05
2022-08-17T02:01:49.458Z,12.20
2022-08-17T02:04:21.677Z,12.45
2022-08-17T02:06:54.391Z,12.97
2022-08-17T02:09:29.534Z,13.25
2022-08-17T02:12:37.233Z,12.52
2022-08-17T02:14:59.370Z,19.95
2022-08-17T02:17:31.587Z,12.23
2022-08-17T02:20:02.520Z,11.90
2022-08-17T02:22:33.962Z,12.50
2022-08-17T02:25:06.950Z,12.30
2022-08-17T02:27:41.297Z,14.77
2022-08-17T02:31:00.886Z,10.65
2022-08-17T02:33:06.346Z,11.13
2022-08-17T02:35:44.323Z,11.30
2022-08-17T02:38:16.706Z,11.75
2022-08-17T02:40:48.076Z,11.50
2022-08-17T02:43:23.666Z,11.85
2022-08-17T02:45:52.660Z,11.93
2022-08-17T02:48:28.020Z,11.40
2022-08-17T02:51:00.327Z,11.35
2022-08-17T02:53:36.259Z,11.55
2022-08-17T02:56:07.751Z,11.68
2022-08-17T02:58:36.681Z,11.27
2022-08-17T03:01:07.732Z,11.80
2022-08-17T03:03:36.763Z,12.43
2022-08-17T03:06:05.907Z,11.25
2022-08-17T03:08:34.160Z,14.27
2022-08-17T03:11:02.244Z,12.85
2022-08-17T03:13:31.983Z,13.55
2022-08-17T03:15:59.942Z,13.63
2022-08-17T03:18:28.129Z,17.20
2022-08-17T03:20:58.558Z,16.90
2022-08-17T03:23:28.009Z,14.57
2022-08-17T03:25:59.737Z,14.80
2022-08-17T03:28:28.359Z,14.48
2022-08-17T03:30:57.997Z,15.75
2022-08-17T03:33:25.939Z,14.73
2022-08-17T03:35:53.937Z,14.40
2022-08-17T03:38:22.043Z,12.50
2022-08-17T03:40:56.412Z,13.40
2022-08-17T03:43:30.142Z,17.30
2022-08-17T03:46:27.723Z,13.35
2022-08-17T03:49:19.119Z,14.93
2022-08-17T03:52:04.473Z,15.43
2022-08-17T03:54:49.854Z,12.13
2022-08-17T03:57:19.420Z,11.52
2022-08-17T03:59:48.018Z,11.07
2022-08-17T04:02:25.924Z,13.00
2022-08-17T04:04:55.570Z,9.75
2022-08-17T04:07:27.483Z,9.30
2022-08-17T04:09:57.873Z,9.60
2022-08-17T04:12:30.861Z,9.13
2022-08-17T04:17:30.654Z,8.75
2022-08-17T04:19:58.999Z,11.82
2022-08-17T04:22:30.803Z,11.57
2022-08-17T04:25:08.553Z,13.73
2022-08-17T04:27:37.636Z,12.18
2022-08-17T04:30:08.613Z,9.18
2022-08-17T04:35:32.943Z,8.98
2022-08-17T04:38:01.481Z,8.23
2022-08-17T04:40:47.704Z,8.13
2022-08-17T04:43:19.312Z,7.95
2022-08-17T04:45:55.093Z,8.35
2022-08-17T04:48:27.862Z,8.00
2022-08-17T04:51:11.812Z,8.52
2022-08-17T04:56:19.061Z,8.17
2022-08-17T04:58:50.934Z,8.15
2022-08-17T05:01:23.320Z,8.65
2022-08-17T05:03:53.813Z,7.78
2022-08-17T05:06:24.455Z,8.73
2022-08-17T05:08:52.750Z,9.40
2022-08-17T05:11:21.212Z,8.73
2022-08-17T05:13:51.328Z,12.45
2022-08-17T05:16:21.283Z,15.48
2022-08-17T05:18:50.078Z,10.15
2022-08-17T05:21:20.157Z,9.35
2022-08-17T05:23:56.867Z,10.80
2022-08-17T05:26:27.469Z,11.77
2022-08-17T05:29:02.775Z,11.07
2022-08-17T05:31:32.177Z,10.07
2022-08-17T05:34:04.544Z,10.95
2022-08-17T05:36:43.442Z,13.07
2022-08-17T05:39:21.895Z,12.13
2022-08-17T05:41:53.468Z,11.93
2022-08-17T05:44:26.017Z,10.13
2022-08-17T05:46:55.754Z,11.73
2022-08-17T05:49:29.243Z,17.40
2022-08-17T05:52:18.843Z,16.77
2022-08-17T05:55:19.895Z,17.42
2022-08-17T05:58:10.394Z,15.95
2022-08-17T06:00:50.907Z,14.65
2022-08-17T06:03:53.437Z,14.48
2022-08-17T06:09:31.607Z,15.93
2022-08-17T06:12:32.587Z,14.60
2022-08-17T06:15:20.280Z,17.33
2022-08-17T06:17:56.208Z,23.50
2022-08-17T06:20:28.054Z,20.67
2022-08-17T06:23:07.116Z,15.80
2022-08-17T06:25:48.724Z,17.27
2022-08-17T06:28:32.165Z,18.00
2022-08-17T06:31:07.762Z,19.67
2022-08-17T06:33:41.551Z,20.23
2022-08-17T06:36:30.612Z,19.65
2022-08-17T06:39:23.127Z,16.42
2022-08-17T06:42:06.642Z,18.05
2022-08-17T06:44:51.120Z,24.55
2022-08-17T06:47:28.537Z,21.95
2022-08-17T06:50:10.973Z,22.63
2022-08-17T06:52:52.527Z,16.85
2022-08-17T06:55:27.615Z,20.65
2022-08-17T06:58:05.350Z,17.83
2022-08-17T07:00:49.067Z,20.80
2022-08-17T07:03:37.713Z,19.90
2022-08-17T07:06:12.443Z,21.45
2022-08-17T07:08:50.712Z,23.15
2022-08-17T07:11:27.206Z,23.05
2022-08-17T07:14:03.867Z,21.67
2022-08-17T07:16:39.830Z,24.67
2022-08-17T07:19:10.758Z,21.75
2022-08-17T07:21:52.370Z,23.55
2022-08-17T07:24:31.763Z,28.27
2022-08-17T07:27:12.555Z,24.85
2022-08-17T07:29:44.955Z,25.55
2022-08-17T07:32:19.003Z,28.55
2022-08-17T07:35:06.597Z,32.25
2022-08-17T07:37:43.181Z,29.17
2022-08-17T07:40:28.542Z,37.38
2022-08-17T07:43:24.426Z,37.13
2022-08-17T07:46:23.924Z,35.38
2022-08-17T07:49:00.098Z,33.70
2022-08-17T07:51:31.928Z,45.10
2022-08-17T07:54:14.561Z,41.33
2022-08-17T07:56:51.365Z,45.70
2022-08-17T07:59:25.238Z,44.05
2022-08-17T08:02:07.198Z,39.10
2022-08-17T08:04:59.735Z,37.92
2022-08-17T08:07:40.389Z,43.80
2022-08-17T08:10:14.007Z,36.70
2022-08-17T08:12:46.722Z,42.80
2022-08-17T08:15:20.332Z,41.92
2022-08-17T08:17:55.827Z,40.70
2022-08-17T08:20:51.358Z,43.38
2022-08-17T08:23:37.525Z,40.92
2022-08-17T08:26:23.185Z,40.08
2022-08-17T08:29:02.498Z,38.15
2022-08-17T08:31:49.469Z,37.97
2022-08-17T08:35:00.548Z,40.17
2022-08-17T08:37:40.619Z,38.70
2022-08-17T08:40:45.108Z,37.00
2022-08-17T08:43:28.829Z,38.17
2022-08-17T08:46:08.272Z,38.05
2022-08-17T08:49:11.894Z,38.80
2022-08-17T08:51:51.889Z,38.53
2022-08-17T08:54:35.726Z,34.17
2022-08-17T08:57:33.955Z,32.97
2022-08-17T09:00:15.007Z,32.30
2022-08-17T09:03:06.579Z,31.27
2022-08-17T09:05:54.962Z,33.60
2022-08-17T09:08:32.499Z,29.90
2022-08-17T09:11:11.483Z,30.20
2022-08-17T09:13:54.474Z,32.10
2022-08-17T09:16:30.343Z,28.15
2022-08-17T09:19:07.161Z,30.95
2022-08-17T09:21:47.760Z,26.90
2022-08-17T09:24:26.316Z,31.13
2022-08-17T09:27:04.849Z,30.85
2022-08-17T09:29:37.494Z,26.88
2022-08-17T09:32:17.890Z,28.52
2022-08-17T09:34:54.865Z,30.60
2022-08-17T09:37:31.198Z,29.33
2022-08-17T09:40:13.770Z,28.95
2022-08-17T09:42:55.976Z,30.85
2022-08-17T09:45:32.186Z,30.67
2022-08-17T09:48:07.841Z,33.40
2022-08-17T09:51:05.453Z,31.88
2022-08-17T09:53:33.837Z,33.45
2022-08-17T09:56:19.806Z,29.25
2022-08-17T09:59:18.851Z,32.25
2022-08-17T10:01:53.931Z,31.40
2022-08-17T10:04:34.016Z,29.80
2022-08-17T10:07:11.357Z,31.17
2022-08-17T10:09:50.162Z,32.50
2022-08-17T10:12:30.264Z,28.08
2022-08-17T10:15:19.575Z,28.83
2022-08-17T10:18:08.177Z,25.27
2022-08-17T10:20:47.398Z,26.38
2022-08-17T10:23:40.899Z,25.73
2022-08-17T10:26:19.916Z,26.15
2022-08-17T10:28:55.400Z,25.08
2022-08-17T10:31:35.648Z,28.17
2022-08-17T10:34:41.184Z,29.30
2022-08-17T10:37:28.749Z,28.05
2022-08-17T10:40:09.317Z,26.92
2022-08-17T10:42:50.851Z,31.35
2022-08-17T10:45:27.281Z,27.77
2022-08-17T10:48:06.084Z,27.35
2022-08-17T10:50:58.665Z,28.38
2022-08-17T10:53:54.673Z,29.25
2022-08-17T10:56:45.790Z,26.55
2022-08-17T10:59:49.281Z,27.17
2022-08-17T11:02:26.180Z,33.55
2022-08-17T11:05:23.115Z,23.30
2022-08-17T11:08:17.429Z,32.95
2022-08-17T11:10:58.120Z,27.02
2022-08-17T11:13:41.887Z,20.98
2022-08-17T11:16:34.822Z,20.73
2022-08-17T11:19:45.142Z,20.73
2022-08-17T11:22:46.286Z,17.65
2022-08-17T11:25:21.630Z,17.73
2022-08-17T11:27:54.548Z,16.98
2022-08-17T11:30:49.276Z,15.73
2022-08-17T11:33:58.551Z,16.30
2022-08-17T11:36:40.063Z,15.65
2022-08-17T11:39:30.597Z,13.68
2022-08-17T11:42:07.675Z,12.98
2022-08-17T11:44:53.715Z,12.30
2022-08-17T11:48:09.392Z,11.45
2022-08-17T11:51:08.747Z,11.00
2022-08-17T11:54:31.854Z,12.00
2022-08-17T11:57:47.859Z,9.02
2022-08-17T12:00:49.748Z,13.35
2022-08-17T12:03:26.686Z,10.98
2022-08-17T12:06:07.072Z,11.95
2022-08-17T12:08:43.378Z,12.07
2022-08-17T12:11:18.958Z,13.48
2022-08-17T12:14:16.962Z,12.52
2022-08-17T12:16:46.581Z,11.55
2022-08-17T12:19:21.735Z,14.63
2022-08-17T12:21:57.829Z,13.50
2022-08-17T12:24:50.866Z,14.90
2022-08-17T12:30:21.134Z,13.88
2022-08-17T12:32:51.609Z,15.32
2022-08-17T12:35:39.291Z,15.15
2022-08-17T12:38:28.105Z,16.92
2022-08-17T12:41:25.057Z,15.25
2022-08-17T12:44:02.735Z,17.88
2022-08-17T12:46:45.677Z,16.92
2022-08-17T12:49:24.762Z,15.68
2022-08-17T12:52:09.441Z,17.33
2022-08-17T12:54:47.581Z,15.38
2022-08-17T12:57:24.826Z,16.73
2022-08-17T12:59:59.628Z,13.32
2022-08-17T13:02:38.790Z,14.93
2022-08-17T13:05:17.877Z,12.35
2022-08-17T13:07:50.154Z,12.07
2022-08-17T13:10:32.237Z,11.63
2022-08-17T13:13:07.659Z,12.05
2022-08-17T13:15:44.797Z,11.55
2022-08-17T13:18:45.033Z,11.00
2022-08-17T13:21:26.927Z,11.50
2022-08-17T13:24:01.425Z,11.70
2022-08-17T13:26:34.233Z,11.25
2022-08-17T13:29:09.665Z,14.43
2022-08-17T13:31:52.817Z,13.23
2022-08-17T13:35:12.306Z,12.90
2022-08-17T13:37:35.739Z,12.32
2022-08-17T13:40:29.812Z,11.80
2022-08-17T13:42:58.878Z,13.07
2022-08-17T13:45:50.410Z,13.70
2022-08-17T13:48:33.536Z,13.68
2022-08-17T13:51:27.248Z,15.90
2022-08-17T13:54:04.847Z,13.80
2022-08-17T13:57:00.746Z,12.30
2022-08-17T13:59:53.106Z,18.10
2022-08-17T14:02:28.509Z,11.48
2022-08-17T14:05:00.520Z,16.35
2022-08-17T14:07:36.198Z,11.48
2022-08-17T14:10:11.709Z,12.65
2022-08-17T14:12:45.141Z,14.57
2022-08-17T14:17:42.609Z,9.88
2022-08-17T14:20:13.692Z,9.60
2022-08-17T14:22:46.566Z,11.32
2022-08-17T14:25:16.619Z,10.80
2022-08-17T14:27:52.951Z,9.90
2022-08-17T14:30:24.185Z,10.25
2022-08-17T14:32:53.685Z,8.50
2022-08-17T14:35:25.888Z,8.85
2022-08-17T14:37:57.146Z,9.45
2022-08-17T14:40:27.098Z,8.98
2022-08-17T14:42:58.472Z,8.93
2022-08-17T14:45:32.838Z,9.32
2022-08-17T14:48:05.695Z,8.52
2022-08-17T14:50:35.527Z,9.50
2022-08-17T14:53:06.794Z,9.57
2022-08-17T14:55:36.216Z,8.90
2022-08-17T14:58:05.136Z,7.80
2022-08-17T15:00:33.531Z,7.80
2022-08-17T15:03:03.087Z,8.43
2022-08-17T15:05:34.379Z,10.95
2022-08-17T15:08:03.866Z,11.85
2022-08-17T15:10:33.709Z,10.82
2022-08-17T15:13:01.966Z,12.23
2022-08-17T15:15:31.129Z,10.52
2022-08-17T15:17:59.875Z,11.65
2022-08-17T15:20:31.058Z,13.85
2022-08-17T15:22:59.948Z,13.40
2022-08-17T15:25:31.115Z,11.35
2022-08-17T15:28:03.309Z,11.75
2022-08-17T15:30:32.418Z,13.55
2022-08-17T15:33:02.137Z,12.23
2022-08-17T15:35:32.762Z,14.70
2022-08-17T15:38:08.339Z,12.20
2022-08-17T15:40:40.251Z,11.93
2022-08-17T15:43:15.938Z,12.85
2022-08-17T15:45:44.847Z,13.13
2022-08-17T15:48:42.231Z,11.55
2022-08-17T15:51:12.935Z,10.57
2022-08-17T15:53:41.921Z,11.00
2022-08-17T15:56:11.494Z,10.10
2022-08-17T15:58:42.230Z,9.40
2022-08-17T16:01:18.320Z,10.50
2022-08-17T16:04:04.680Z,10.20
2022-08-17T16:06:36.796Z,10.63
2022-08-17T16:09:05.324Z,11.13
2022-08-17T16:11:35.764Z,10.35
2022-08-17T16:14:07.419Z,10.98
2022-08-17T16:16:39.103Z,13.68
2022-08-17T16:19:11.872Z,13.38
2022-08-17T16:21:42.835Z,12.35
2022-08-17T16:24:14.964Z,13.05
2022-08-17T16:26:44.914Z,13.88
2022-08-17T16:29:17.169Z,10.98
2022-08-17T16:31:45.996Z,11.57
2022-08-17T16:34:20.276Z,9.63
2022-08-17T16:36:56.733Z,12.73
2022-08-17T16:39:29.602Z,9.90
2022-08-17T16:42:03.300Z,10.20
2022-08-17T16:44:37.142Z,9.13
2022-08-17T16:47:11.545Z,9.02
2022-08-17T16:49:44.472Z,9.23
2022-08-17T16:52:15.479Z,9.73
2022-08-17T16:55:03.829Z,10.50
2022-08-17T16:57:32.258Z,10.25
2022-08-17T17:00:01.807Z,10.48
2022-08-17T17:02:36.837Z,11.00
2022-08-17T17:05:14.229Z,9.25
2022-08-17T17:08:01.622Z,9.07
2022-08-17T17:10:38.720Z,8.57
2022-08-17T17:13:12.284Z,10.30
2022-08-17T17:15:55.081Z,9.35
2022-08-17T17:18:38.116Z,10.10
2022-08-17T17:21:13.028Z,9.00
2022-08-17T17:23:54.349Z,8.95
2022-08-17T17:26:57.459Z,9.43
2022-08-17T17:29:48.288Z,7.60
2022-08-17T17:32:31.923Z,6.95
2022-08-17T17:35:08.958Z,6.80
2022-08-17T17:37:43.846Z,6.90
2022-08-17T17:40:22.707Z,7.53
2022-08-17T17:42:53.678Z,6.75
2022-08-17T17:45:30.743Z,6.75
2022-08-17T17:48:01.115Z,5.88
2022-08-17T17:50:38.396Z,5.85
2022-08-17T17:53:18.812Z,6.32
2022-08-17T17:56:34.954Z,6.13
2022-08-17T17:59:12.579Z,6.13
2022-08-17T18:01:50.097Z,5.10
2022-08-17T18:04:31.917Z,6.03
2022-08-17T18:07:18.363Z,5.32
2022-08-17T18:10:00.889Z,5.45
2022-08-17T18:12:39.688Z,4.07
2022-08-17T18:15:28.374Z,5.15
2022-08-17T18:18:28.950Z,4.00
2022-08-17T18:21:09.917Z,4.20
2022-08-17T18:23:47.574Z,3.63
2022-08-17T18:26:38.581Z,3.25
2022-08-17T18:29:31.812Z,3.70
2022-08-17T18:32:18.806Z,3.92
2022-08-17T18:34:50.863Z,4.40
2022-08-17T18:37:54.258Z,4.40
2022-08-17T18:40:30.714Z,5.15
2022-08-17T18:43:15.998Z,4.40
2022-08-17T18:45:49.341Z,5.30
2022-08-17T18:48:33.800Z,5.47
2022-08-17T18:51:39.863Z,5.20
2022-08-17T18:54:33.321Z,5.82
2022-08-17T18:57:03.711Z,5.80
2022-08-17T18:59:40.987Z,7.15
2022-08-17T19:05:38.734Z,6.13
2022-08-17T19:08:21.539Z,6.35
2022-08-17T19:10:54.144Z,7.03
2022-08-17T19:13:26.678Z,6.40
2022-08-17T19:16:14.104Z,9.30
2022-08-17T19:18:48.936Z,8.10
2022-08-17T19:21:22.372Z,6.43
2022-08-17T19:23:55.019Z,6.47
2022-08-17T19:26:53.716Z,6.45
2022-08-17T19:29:22.376Z,5.95
2022-08-17T19:31:51.175Z,6.43
2022-08-17T19:34:33.417Z,6.88
2022-08-17T19:37:09.058Z,7.70
2022-08-17T19:39:45.622Z,5.88
2022-08-17T19:42:26.939Z,6.03
2022-08-17T19:45:02.889Z,5.72
2022-08-17T19:47:55.326Z,6.20
2022-08-17T19:50:38.467Z,5.15
2022-08-17T19:53:18.627Z,6.28
2022-08-17T19:55:54.764Z,5.32
2022-08-17T19:58:37.259Z,4.85
2022-08-17T20:01:10.842Z,5.45
2022-08-17T20:03:50.544Z,6.80
2022-08-17T20:06:24.915Z,4.82
2022-08-17T20:09:06.138Z,4.60
2022-08-17T20:11:42.060Z,4.82
2022-08-17T20:14:17.442Z,5.20
2022-08-17T20:16:49.324Z,4.93
2022-08-17T20:19:41.003Z,4.93
2022-08-17T20:22:14.822Z,4.68
2022-08-17T20:24:55.124Z,4.82
2022-08-17T20:27:31.369Z,5.13
2022-08-17T20:30:11.061Z,5.75
2022-08-17T20:32:54.216Z,6.22
2022-08-17T20:35:30.500Z,5.07
2022-08-17T20:38:04.448Z,5.25
2022-08-17T20:40:39.462Z,4.65
2022-08-17T20:43:45.761Z,4.75
2022-08-17T20:46:32.190Z,5.22
2022-08-17T20:49:23.933Z,5.18
2022-08-17T20:52:02.957Z,5.22
2022-08-17T20:55:06.256Z,5.35
2022-08-17T20:57:55.171Z,4.85
2022-08-17T21:00:51.334Z,5.03
2022-08-17T21:03:51.889Z,4.72
2022-08-17T21:06:23.866Z,5.45
2022-08-17T21:08:59.030Z,4.05
2022-08-17T21:12:04.363Z,4.70
2022-08-17T21:14:43.338Z,4.72
2022-08-17T21:17:40.738Z,4.80
2022-08-17T21:20:25.969Z,4.15
2022-08-17T21:23:10.667Z,5.07
2022-08-17T21:26:02.799Z,10.88
2022-08-17T21:29:00.761Z,12.10
2022-08-17T21:31:37.700Z,13.80
2022-08-17T21:34:33.542Z,6.63
2022-08-17T21:37:32.846Z,9.43
2022-08-17T21:40:20.127Z,6.45
2022-08-17T21:42:51.204Z,6.55
2022-08-17T21:45:25.381Z,4.93
2022-08-17T21:48:11.758Z,5.25
2022-08-17T21:50:43.590Z,5.60
2022-08-17T21:53:25.440Z,6.38
2022-08-17T21:55:58.256Z,5.00
2022-08-17T21:58:34.901Z,5.63
2022-08-17T22:01:23.326Z,5.65
2022-08-17T22:04:02.156Z,5.68
2022-08-17T22:06:36.036Z,5.80
2022-08-17T22:11:55.741Z,5.47
2022-08-17T22:14:52.217Z,7.13
2022-08-17T22:17:23.111Z,6.78
2022-08-17T22:19:56.772Z,6.45
2022-08-17T22:22:32.341Z,6.18
2022-08-17T22:25:06.111Z,6.03
2022-08-17T22:27:49.662Z,5.93
2022-08-17T22:30:32.163Z,5.63
2022-08-17T22:33:05.249Z,5.25
2022-08-17T22:35:40.638Z,5.00
2022-08-17T22:38:34.388Z,6.10
2022-08-17T22:41:52.808Z,5.25
2022-08-17T22:44:28.326Z,5.30
2022-08-17T22:47:11.586Z,4.25
2022-08-17T22:49:53.584Z,3.80
2022-08-17T22:52:32.705Z,4.03
2022-08-17T22:55:33.402Z,4.15
2022-08-17T22:58:29.096Z,3.78
2022-08-17T23:01:28.758Z,4.13
2022-08-17T23:04:02.057Z,4.55
2022-08-17T23:06:32.513Z,4.10
2022-08-17T23:09:03.559Z,3.95
2022-08-17T23:11:49.062Z,3.67
2022-08-17T23:14:20.260Z,3.65
2022-08-17T23:16:50.901Z,3.58
2022-08-17T23:19:21.074Z,3.22
2022-08-17T23:21:55.354Z,3.20
2022-08-17T23:24:25.629Z,3.72
2022-08-17T23:26:54.661Z,2.67
2022-08-17T23:29:23.078Z,3.13
2022-08-17T23:31:52.899Z,3.13
2022-08-17T23:34:20.854Z,3.30
2022-08-17T23:36:53.184Z,3.63
2022-08-17T23:39:27.884Z,3.87
2022-08-17T23:41:57.310Z,3.97
2022-08-17T23:44:25.680Z,3.17
2022-08-17T23:46:55.710Z,4.05
2022-08-17T23:49:24.516Z,4.18
2022-08-17T23:51:54.799Z,3.88
2022-08-17T23:54:27.796Z,4.15
2022-08-17T23:56:56.105Z,4.57
2022-08-17T23:59:24.761Z,4.75
